Time;durP1;ratioP1;P1;durP2;ratioP2;P2;SDS_P1;SDS_P2;PMS_P1;PMS_P2;Temp;Humidity;BMP_temperature;BMP_pressure;BME280_temperature;BME280_humidity;BME280_pressure;Samples;Min_cycle;Max_cycle;Signal;HPM_P1;HPM_P2
2022/08/18 00:00:50;;;;;;;;;;;;;;;27.47;38.87;99904.41;5371677;32;34388;-75
2022/08/18 00:03:52;;;;;;;;;;;;;;;27.71;37.93;99892.59;5384621;32;35468;-65
2022/08/18 00:07:05;;;;;;;;;;;;;;;26.87;39.97;99900.56;5375726;32;34896;-74
2022/08/18 00:10:07;;;;;;;;;;;;;;;26.10;41.50;99891.41;5379640;32;34984;-74
2022/08/18 00:13:19;;;;;;;;;;;;;;;26.00;41.33;99879.97;5369894;32;45695;-66
2022/08/18 00:16:21;;;;;;;;;;;;;;;26.10;41.69;99875.25;5371801;32;34464;-65
2022/08/18 00:19:23;;;;;;;;;;;;;;;25.99;42.04;99865.66;5367035;32;34787;-65
2022/08/18 00:22:45;;;;;;;;;;;;;;;26.64;40.44;99867.31;5363789;32;44919;-65
2022/08/18 00:25:49;;;;;;;;;;;;;;;27.01;39.33;99869.28;5384994;32;34793;-75
2022/08/18 00:28:50;;;;;;;;;;;;;;;26.47;41.56;99869.25;5361394;32;34806;-75
2022/08/18 00:31:52;;;;;;;;;;;;;;;26.52;41.49;99866.03;5389658;32;34827;-77
2022/08/18 00:34:54;;;;;;;;;;;;;;;26.80;41.35;99874.50;5367268;32;35235;-73
2022/08/18 00:37:57;;;;;;;;;;;;;;;27.15;39.52;99871.25;5378092;32;34953;-64
2022/08/18 00:40:59;;;;;;;;;;;;;;;27.30;38.96;99865.06;5369982;32;34491;-65
2022/08/18 00:44:03;;;;;;;;;;;;;;;27.06;40.17;99871.50;5368286;32;35120;-65
2022/08/18 00:47:05;;;;;;;;;;;;;;;26.86;40.14;99880.00;5391538;32;34764;-74
2022/08/18 00:50:07;;;;;;;;;;;;;;;27.13;39.38;99872.47;5361255;32;34707;-75
2022/08/18 00:53:34;;;;;;;;;;;;;;;26.32;41.86;99879.03;5376277;32;44632;-75
2022/08/18 00:56:44;;;;;;;;;;;;;;;25.75;44.26;99881.84;5350649;32;35545;-79
2022/08/18 00:59:50;;;;;;;;;;;;;;;25.78;43.67;99881.53;5349004;32;45501;-75
2022/08/18 01:02:53;;;;;;;;;;;;;;;26.44;41.66;99883.91;5374999;32;35323;-76
2022/08/18 01:05:56;;;;;;;;;;;;;;;26.81;41.12;99885.09;5360393;32;35311;-66
2022/08/18 01:08:58;;;;;;;;;;;;;;;26.37;42.50;99890.97;5364522;32;36134;-76
2022/08/18 01:12:00;;;;;;;;;;;;;;;26.59;41.93;99885.84;5359337;32;34258;-74
2022/08/18 01:15:22;;;;;;;;;;;;;;;26.18;43.41;99880.59;5362773;32;44915;-76
2022/08/18 01:21:58;;;;;;;;;;;;;;;26.22;43.75;99881.94;5368455;32;43160;-74
2022/08/18 01:28:21;;;;;;;;;;;;;;;26.12;44.08;99892.06;5370654;32;44501;-64
2022/08/18 01:31:29;;;;;;;;;;;;;;;26.78;42.22;99901.59;5371802;32;34630;-74
2022/08/18 01:34:32;;;;;;;;;;;;;;;26.19;43.82;99901.13;5383800;32;34809;-75
2022/08/18 01:37:34;;;;;;;;;;;;;;;26.61;42.83;99898.16;5375373;32;34804;-65
2022/08/18 01:40:36;;;;;;;;;;;;;;;26.36;44.21;99889.28;5380529;32;35196;-65
2022/08/18 01:43:58;;;;;;;;;;;;;;;26.15;44.60;99900.66;5364224;32;35372;-66
2022/08/18 01:47:00;;;;;;;;;;;;;;;26.30;43.68;99900.75;5372173;32;34286;-66
2022/08/18 01:50:03;;;;;;;;;;;;;;;25.48;46.81;99912.59;5380152;32;35224;-65
2022/08/18 01:53:06;;;;;;;;;;;;;;;25.89;45.53;99906.25;5361201;32;34758;-74
2022/08/18 01:56:08;;;;;;;;;;;;;;;25.58;47.26;99910.59;5371761;32;34221;-65
2022/08/18 01:59:12;;;;;;;;;;;;;;;25.08;48.63;99911.56;5361368;32;35081;-74
2022/08/18 02:02:18;;;;;;;;;;;;;;;25.20;47.95;99909.41;5386588;32;44700;-66
2022/08/18 02:05:26;;;;;;;;;;;;;;;25.35;47.42;99908.56;5356183;32;34753;-74
2022/08/18 02:08:32;;;;;;;;;;;;;;;25.82;46.33;99910.59;5358018;32;34261;-64
2022/08/18 02:11:34;;;;;;;;;;;;;;;24.92;49.11;99908.78;5386208;32;34972;-76
2022/08/18 02:14:36;;;;;;;;;;;;;;;24.97;48.96;99898.38;5352117;32;35244;-64
2022/08/18 02:17:39;;;;;;;;;;;;;;;25.51;47.70;99914.97;5357689;32;34100;-76
2022/08/18 02:20:42;;;;;;;;;;;;;;;26.01;46.58;99903.19;5349308;32;34669;-65
2022/08/18 02:23:45;;;;;;;;;;;;;;;25.59;48.11;99906.91;5342295;32;44662;-75
2022/08/18 02:26:54;;;;;;;;;;;;;;;25.37;48.83;99895.81;5386448;32;34584;-78
2022/08/18 02:29:58;;;;;;;;;;;;;;;25.39;48.36;99901.84;5362392;32;34781;-75
2022/08/18 02:33:00;;;;;;;;;;;;;;;26.45;45.42;99900.91;5376198;32;34866;-66
2022/08/18 02:36:02;;;;;;;;;;;;;;;26.79;44.55;99911.38;5354069;32;35040;-67
2022/08/18 02:39:04;;;;;;;;;;;;;;;26.51;45.49;99918.22;5362710;32;34964;-74
2022/08/18 02:42:06;;;;;;;;;;;;;;;25.51;48.35;99920.34;5373817;32;34315;-74
2022/08/18 02:45:08;;;;;;;;;;;;;;;25.69;47.81;99912.94;5366499;32;35165;-77
2022/08/18 02:48:10;;;;;;;;;;;;;;;24.90;50.11;99918.84;5388297;32;35582;-75
2022/08/18 02:51:13;;;;;;;;;;;;;;;25.98;47.63;99917.00;5368455;32;36165;-65
2022/08/18 02:54:15;;;;;;;;;;;;;;;25.91;47.43;99917.69;5369473;32;44584;-65
2022/08/18 02:57:17;;;;;;;;;;;;;;;25.20;49.94;99923.69;5340035;32;35460;-74
2022/08/18 03:00:19;;;;;;;;;;;;;;;25.21;49.99;99924.50;5379412;32;34490;-75
2022/08/18 03:03:21;;;;;;;;;;;;;;;25.49;49.32;99919.66;5364025;32;35921;-77
2022/08/18 03:06:23;;;;;;;;;;;;;;;24.97;50.37;99918.03;5373876;32;34907;-66
2022/08/18 03:09:25;;;;;;;;;;;;;;;24.66;51.59;99939.25;5371497;32;34968;-65
2022/08/18 03:12:28;;;;;;;;;;;;;;;24.58;51.90;99933.84;5378667;32;35075;-66
2022/08/18 03:15:30;;;;;;;;;;;;;;;25.22;50.21;99935.09;5384558;32;34668;-63
2022/08/18 03:18:32;;;;;;;;;;;;;;;25.65;49.22;99933.97;5350516;32;36454;-78
2022/08/18 03:21:35;;;;;;;;;;;;;;;24.74;51.64;99936.62;5388870;32;34248;-64
2022/08/18 03:24:37;;;;;;;;;;;;;;;25.31;50.18;99939.50;5356052;32;35081;-65
2022/08/18 03:27:39;;;;;;;;;;;;;;;25.15;50.90;99947.53;5375392;32;34915;-65
2022/08/18 03:30:42;;;;;;;;;;;;;;;25.29;50.59;99948.72;5384433;32;34844;-75
2022/08/18 03:33:44;;;;;;;;;;;;;;;24.40;53.38;99951.88;5352001;32;46644;-65
2022/08/18 03:36:47;;;;;;;;;;;;;;;25.36;50.95;99952.44;5393269;32;44882;-65
2022/08/18 03:39:51;;;;;;;;;;;;;;;25.04;52.04;99961.22;5366992;32;35117;-74
2022/08/18 03:42:53;;;;;;;;;;;;;;;24.91;52.28;99964.38;5391318;32;34701;-75
2022/08/18 03:45:58;;;;;;;;;;;;;;;24.95;52.42;99970.28;5370430;32;35069;-74
2022/08/18 03:49:00;;;;;;;;;;;;;;;24.48;53.45;99962.69;5356671;32;34237;-65
2022/08/18 03:52:04;;;;;;;;;;;;;;;24.56;53.35;99960.88;5392213;32;34442;-75
2022/08/18 03:55:06;;;;;;;;;;;;;;;24.42;53.81;99950.75;5363526;32;35447;-67
2022/08/18 03:58:12;;;;;;;;;;;;;;;24.78;52.58;99947.87;5362172;32;35868;-74
2022/08/18 04:01:15;;;;;;;;;;;;;;;24.35;53.81;99940.81;5366735;32;37386;-65
2022/08/18 04:04:27;;;;;;;;;;;;;;;24.92;52.66;99943.72;5359071;32;35376;-66
2022/08/18 04:07:29;;;;;;;;;;;;;;;25.56;50.72;99947.59;5386076;32;35449;-65
2022/08/18 04:10:31;;;;;;;;;;;;;;;25.04;52.02;99958.53;5366193;32;33699;-75
2022/08/18 04:13:36;;;;;;;;;;;;;;;24.81;52.90;99952.94;5385868;32;34790;-75
2022/08/18 04:16:38;;;;;;;;;;;;;;;24.67;53.68;99950.88;5371197;32;35223;-64
2022/08/18 04:19:40;;;;;;;;;;;;;;;25.13;52.25;99946.84;5365034;32;34636;-65
2022/08/18 04:22:44;;;;;;;;;;;;;;;25.11;52.75;99957.75;5361988;32;35735;-63
2022/08/18 04:25:54;;;;;;;;;;;;;;;25.49;51.66;99951.94;5379920;32;45436;-75
2022/08/18 04:28:56;;;;;;;;;;;;;;;24.27;55.42;99963.84;5372250;32;34701;-65
2022/08/18 04:31:59;;;;;;;;;;;;;;;24.81;53.87;99959.16;5369680;32;34548;-65
2022/08/18 04:35:01;;;;;;;;;;;;;;;24.91;53.67;99950.94;5382147;32;35077;-76
2022/08/18 04:38:04;;;;;;;;;;;;;;;24.71;54.67;99954.91;5375091;32;34557;-66
2022/08/18 04:41:05;;;;;;;;;;;;;;;25.17;53.16;99955.41;5386147;32;35200;-65
2022/08/18 04:44:08;;;;;;;;;;;;;;;25.02;53.82;99965.94;5382133;32;34834;-74
2022/08/18 04:47:12;;;;;;;;;;;;;;;25.26;53.19;99966.06;5372904;32;37073;-66
2022/08/18 04:50:14;;;;;;;;;;;;;;;25.44;52.88;99959.66;5380475;32;45215;-65
2022/08/18 04:56:40;;;;;;;;;;;;;;;25.62;52.53;99957.69;5369628;32;34414;-76
2022/08/18 04:59:43;;;;;;;;;;;;;;;25.81;51.61;99962.75;5363849;32;35576;-74
2022/08/18 05:02:45;;;;;;;;;;;;;;;27.23;48.04;99953.97;5382026;32;44588;-65
2022/08/18 05:05:47;;;;;;;;;;;;;;;26.48;50.23;99959.03;5378551;32;34731;-75
2022/08/18 05:08:49;;;;;;;;;;;;;;;27.06;48.79;99960.50;5372601;32;34679;-65
2022/08/18 05:11:51;;;;;;;;;;;;;;;27.55;47.17;99950.22;5368410;32;34464;-78
2022/08/18 05:14:53;;;;;;;;;;;;;;;26.79;49.25;99948.25;5363017;32;35340;-66
2022/08/18 05:17:55;;;;;;;;;;;;;;;28.41;45.08;99940.87;5369680;32;34225;-77
2022/08/18 05:21:00;;;;;;;;;;;;;;;28.86;43.94;99947.09;5367305;32;35305;-65
2022/08/18 05:24:03;;;;;;;;;;;;;;;29.26;43.03;99939.47;5362341;32;34741;-65
2022/08/18 05:27:06;;;;;;;;;;;;;;;28.78;43.78;99948.00;5370714;32;36204;-72
2022/08/18 05:30:08;;;;;;;;;;;;;;;29.73;42.08;99944.34;5350831;32;34443;-67
2022/08/18 05:33:10;;;;;;;;;;;;;;;29.13;43.21;99943.72;5388780;32;34420;-71
2022/08/18 05:36:31;;;;;;;;;;;;;;;28.96;43.56;99947.66;5360947;32;34972;-67
2022/08/18 05:39:37;;;;;;;;;;;;;;;28.91;43.62;99939.22;5380916;32;34446;-68
2022/08/18 05:42:39;;;;;;;;;;;;;;;29.99;41.45;99949.13;5378188;32;36166;-68
2022/08/18 05:45:42;;;;;;;;;;;;;;;29.71;42.23;99956.41;5365018;32;34308;-64
2022/08/18 05:48:44;;;;;;;;;;;;;;;29.92;41.94;99949.09;5388474;32;37492;-67
2022/08/18 05:51:46;;;;;;;;;;;;;;;29.94;41.58;99949.72;5374860;32;35828;-68
2022/08/18 05:58:40;;;;;;;;;;;;;;;30.11;41.42;99958.44;5348223;32;34941;-80
2022/08/18 06:01:44;;;;;;;;;;;;;;;29.23;43.15;99956.06;5361389;32;35470;-64
2022/08/18 06:04:48;;;;;;;;;;;;;;;31.93;37.70;99956.06;5379698;32;47135;-82
2022/08/18 06:07:52;;;;;;;;;;;;;;;33.07;35.29;99943.91;5350933;32;35545;-66
2022/08/18 06:10:54;;;;;;;;;;;;;;;32.41;36.54;99950.41;5386131;32;35835;-66
2022/08/18 06:13:56;;;;;;;;;;;;;;;34.40;32.83;99947.34;5359344;32;35464;-63
2022/08/18 06:17:13;;;;;;;;;;;;;;;34.67;32.41;99950.63;5362773;32;36229;-77
2022/08/18 06:20:20;;;;;;;;;;;;;;;34.01;33.41;99950.47;5387351;32;47395;-67
2022/08/18 06:23:40;;;;;;;;;;;;;;;34.20;32.67;99955.72;5356900;32;34362;-75
2022/08/18 06:26:46;;;;;;;;;;;;;;;32.60;35.50;99959.56;5370106;32;36010;-64
2022/08/18 06:29:54;;;;;;;;;;;;;;;32.20;37.01;99966.91;5356486;32;46907;-75
2022/08/18 06:32:56;;;;;;;;;;;;;;;33.35;34.33;99962.59;5377880;32;34716;-77
2022/08/18 06:36:01;;;;;;;;;;;;;;;33.99;33.45;99947.94;5384073;32;35452;-76
2022/08/18 06:39:06;;;;;;;;;;;;;;;33.79;33.76;99967.16;5374011;32;34074;-73
2022/08/18 06:42:07;;;;;;;;;;;;;;;34.78;32.13;99962.69;5386874;32;33798;-69
2022/08/18 06:45:11;;;;;;;;;;;;;;;34.57;32.29;99954.94;5374884;32;35883;-75
2022/08/18 06:48:51;;;;;;;;;;;;;;;33.73;34.18;99954.41;5385766;32;34247;-62
2022/08/18 06:51:53;;;;;;;;;;;;;;;32.72;35.55;99957.88;5323575;32;34998;-76
2022/08/18 06:55:01;;;;;;;;;;;;;;;34.14;33.31;99950.34;5309365;32;35542;-77
2022/08/18 06:58:06;;;;;;;;;;;;;;;33.84;33.68;99950.97;5361171;32;35305;-77
2022/08/18 07:01:07;;;;;;;;;;;;;;;34.56;32.33;99948.66;5366539;32;34811;-74
2022/08/18 07:04:35;;;;;;;;;;;;;;;35.20;31.05;99947.25;5387081;32;36274;-78
2022/08/18 07:07:39;;;;;;;;;;;;;;;34.77;30.72;99943.78;5380970;32;34534;-65
2022/08/18 07:10:51;;;;;;;;;;;;;;;36.71;27.72;99922.22;5370956;32;44342;-65
2022/08/18 07:13:54;;;;;;;;;;;;;;;36.19;28.65;99928.47;5386568;32;35340;-67
2022/08/18 07:17:23;;;;;;;;;;;;;;;36.12;28.40;99924.19;5367247;32;45359;-67
2022/08/18 07:20:55;;;;;;;;;;;;;;;35.48;29.65;99924.78;5366126;32;44167;-68
2022/08/18 07:24:01;;;;;;;;;;;;;;;35.45;29.63;99928.00;5390956;32;34648;-79
2022/08/18 07:27:39;;;;;;;;;;;;;;;35.89;28.92;99919.53;5368526;32;44828;-68
2022/08/18 07:30:41;;;;;;;;;;;;;;;36.26;28.58;99928.34;5383448;32;34339;-75
2022/08/18 07:34:05;;;;;;;;;;;;;;;36.05;28.48;99927.88;5357460;32;34880;-75
2022/08/18 07:37:22;;;;;;;;;;;;;;;37.17;26.77;99926.75;5371061;32;35763;-67
2022/08/18 07:40:37;;;;;;;;;;;;;;;37.83;25.66;99925.19;5370040;32;35764;-66
2022/08/18 07:43:51;;;;;;;;;;;;;;;36.90;26.83;99928.38;5374520;32;38984;-73
2022/08/18 07:46:57;;;;;;;;;;;;;;;37.45;26.11;99925.91;5386255;32;44631;-74
2022/08/18 07:50:00;;;;;;;;;;;;;;;37.65;26.04;99926.25;5357156;32;35535;-79
2022/08/18 07:53:25;;;;;;;;;;;;;;;37.09;26.61;99918.91;5371350;32;44971;-79
2022/08/18 07:56:38;;;;;;;;;;;;;;;38.73;24.38;99912.25;5371498;32;34236;-78
2022/08/18 07:59:42;;;;;;;;;;;;;;;40.13;22.45;99925.16;5373708;32;34388;-83
2022/08/18 08:03:03;;;;;;;;;;;;;;;39.63;22.80;99918.16;5371831;32;44679;-78
2022/08/18 08:06:11;;;;;;;;;;;;;;;39.56;22.54;99926.59;5377053;32;35624;-63
2022/08/18 08:09:19;;;;;;;;;;;;;;;39.47;22.97;99936.41;5366243;32;35661;-81
2022/08/18 08:12:44;;;;;;;;;;;;;;;40.63;21.31;99938.38;5381068;32;44579;-74
2022/08/18 08:15:58;;;;;;;;;;;;;;;40.61;21.27;99943.34;5375508;32;43706;-63
2022/08/18 08:19:09;;;;;;;;;;;;;;;40.27;21.77;99943.69;5376959;32;34339;-67
2022/08/18 08:22:20;;;;;;;;;;;;;;;39.80;22.03;99949.94;5382602;32;35875;-79
2022/08/18 08:25:22;;;;;;;;;;;;;;;38.98;23.55;99958.41;5376036;32;44653;-66
2022/08/18 08:29:03;;;;;;;;;;;;;;;39.35;23.19;99950.31;5388600;32;44902;-64
2022/08/18 08:32:10;;;;;;;;;;;;;;;37.28;25.88;99947.75;5375172;32;34223;-68
2022/08/18 08:35:16;;;;;;;;;;;;;;;38.32;24.58;99952.00;5373067;32;35490;-67
2022/08/18 08:38:45;;;;;;;;;;;;;;;39.90;22.22;99943.69;5388043;32;35656;-67
2022/08/18 08:41:53;;;;;;;;;;;;;;;38.06;24.70;99946.13;5374588;32;44508;-66
2022/08/18 08:45:20;;;;;;;;;;;;;;;39.19;23.09;99949.34;5384316;32;44898;-66
2022/08/18 08:48:28;;;;;;;;;;;;;;;41.37;20.29;99940.87;5372627;32;34403;-67
2022/08/18 08:51:36;;;;;;;;;;;;;;;41.83;19.50;99934.56;5372612;32;34291;-66
2022/08/18 08:54:45;;;;;;;;;;;;;;;39.25;22.62;99930.97;5377488;32;34454;-68
2022/08/18 08:57:49;;;;;;;;;;;;;;;40.84;21.09;99926.34;5363442;32;46959;-66
2022/08/18 09:00:53;;;;;;;;;;;;;;;39.23;22.87;99928.50;5371511;32;34763;-72
2022/08/18 09:03:56;;;;;;;;;;;;;;;40.63;21.03;99919.09;5362060;32;34899;-77
2022/08/18 09:07:06;;;;;;;;;;;;;;;42.03;19.42;99922.66;5381661;32;34807;-72
2022/08/18 09:10:28;;;;;;;;;;;;;;;40.08;21.90;99922.38;5379241;32;34054;-76
2022/08/18 09:13:49;;;;;;;;;;;;;;;41.35;20.48;99912.75;5329257;32;1115684;-72
2022/08/18 09:17:01;;;;;;;;;;;;;;;41.32;20.49;99910.53;5366259;32;45596;-75
2022/08/18 09:20:22;;;;;;;;;;;;;;;41.24;20.41;99902.78;5369000;32;34486;-74
2022/08/18 09:23:27;;;;;;;;;;;;;;;40.25;21.50;99906.50;5374117;32;36500;-69
2022/08/18 09:26:32;;;;;;;;;;;;;;;40.85;20.96;99899.63;5386358;32;35076;-70
2022/08/18 09:29:53;;;;;;;;;;;;;;;41.87;19.88;99886.00;5372930;32;35611;-72
2022/08/18 09:32:56;;;;;;;;;;;;;;;40.14;21.61;99889.13;5377494;32;35247;-72
2022/08/18 09:36:06;;;;;;;;;;;;;;;40.84;20.83;99886.97;5382270;32;35954;-69
2022/08/18 09:43:11;;;;;;;;;;;;;;;40.83;20.42;99879.78;5372231;32;34299;-75
2022/08/18 09:46:41;;;;;;;;;;;;;;;42.27;18.73;99885.09;5343807;32;37576;-72
2022/08/18 09:49:52;;;;;;;;;;;;;;;41.24;19.83;99886.22;5365165;32;44398;-74
2022/08/18 09:52:57;;;;;;;;;;;;;;;40.20;20.43;99881.72;5386438;32;34726;-74
2022/08/18 09:55:59;;;;;;;;;;;;;;;41.47;19.27;99862.81;5353658;32;34339;-70
2022/08/18 09:59:06;;;;;;;;;;;;;;;42.18;18.52;99851.69;5381520;32;34329;-74
2022/08/18 10:02:12;;;;;;;;;;;;;;;42.30;18.55;99848.63;5370923;32;35268;-73
2022/08/18 10:05:25;;;;;;;;;;;;;;;45.54;14.86;99830.88;5375857;32;46283;-73
2022/08/18 10:08:28;;;;;;;;;;;;;;;43.55;16.79;99834.63;5387539;32;35975;-67
2022/08/18 10:11:43;;;;;;;;;;;;;;;45.33;14.76;99810.13;5365986;32;34549;-66
2022/08/18 10:14:54;;;;;;;;;;;;;;;45.50;14.61;99823.44;5372127;32;44783;-73
2022/08/18 10:18:02;;;;;;;;;;;;;;;45.91;13.80;99812.41;5373195;32;34268;-66
2022/08/18 10:21:26;;;;;;;;;;;;;;;45.21;14.82;99812.53;5370443;32;34687;-67
2022/08/18 10:24:52;;;;;;;;;;;;;;;45.79;13.60;99810.13;5378998;32;36245;-76
2022/08/18 10:27:57;;;;;;;;;;;;;;;45.11;13.93;99814.38;5357620;32;34218;-66
2022/08/18 10:31:04;;;;;;;;;;;;;;;46.35;12.91;99817.34;5374853;32;34400;-80
2022/08/18 10:34:12;;;;;;;;;;;;;;;43.65;15.52;99823.44;5370889;32;34319;-72
2022/08/18 10:37:37;;;;;;;;;;;;;;;46.70;13.00;99806.59;5368149;32;34372;-67
2022/08/18 10:40:39;;;;;;;;;;;;;;;43.37;15.33;99814.81;5384462;32;34891;-82
2022/08/18 10:43:45;;;;;;;;;;;;;;;44.36;14.50;99827.38;5373105;32;45001;-74
2022/08/18 10:46:58;;;;;;;;;;;;;;;43.76;15.04;99824.97;5371153;32;34177;-75
2022/08/18 10:50:04;;;;;;;;;;;;;;;43.13;15.34;99816.69;5350071;32;34237;-76
2022/08/18 10:53:15;;;;;;;;;;;;;;;44.69;13.42;99814.47;5355647;32;34242;-68
2022/08/18 10:56:49;;;;;;;;;;;;;;;42.77;14.99;99805.88;5361939;32;34341;-74
2022/08/18 10:59:54;;;;;;;;;;;;;;;43.89;13.94;99809.66;5358632;32;44562;-75
2022/08/18 11:03:08;;;;;;;;;;;;;;;40.35;17.46;99804.69;5375910;32;34415;-67
2022/08/18 11:06:38;;;;;;;;;;;;;;;41.45;16.47;99809.06;5383947;32;34594;-67
2022/08/18 11:09:40;;;;;;;;;;;;;;;42.39;15.83;99805.50;5358222;32;34623;-74
2022/08/18 11:13:06;;;;;;;;;;;;;;;42.73;14.88;99796.50;5369316;32;44252;-82
2022/08/18 11:16:12;;;;;;;;;;;;;;;43.51;14.46;99803.94;5376734;32;37423;-75
2022/08/18 11:19:14;;;;;;;;;;;;;;;42.86;14.89;99793.09;5375324;32;44561;-74
2022/08/18 11:22:37;;;;;;;;;;;;;;;44.92;13.16;99791.38;5374482;32;34474;-65
2022/08/18 11:25:40;;;;;;;;;;;;;;;43.13;14.55;99789.84;5374923;32;34563;-73
2022/08/18 11:28:42;;;;;;;;;;;;;;;44.09;13.44;99794.72;5387196;32;34166;-68
2022/08/18 11:31:50;;;;;;;;;;;;;;;47.62;10.88;99780.09;5372409;32;44524;-78
2022/08/18 11:34:57;;;;;;;;;;;;;;;45.70;12.58;99766.75;5381347;32;34231;-73
2022/08/18 11:38:03;;;;;;;;;;;;;;;45.58;12.60;99761.69;5371926;32;34154;-76
2022/08/18 11:41:18;;;;;;;;;;;;;;;46.08;12.43;99757.09;5370164;32;34217;-77
2022/08/18 11:44:22;;;;;;;;;;;;;;;46.17;12.31;99754.41;5388985;32;44723;-80
2022/08/18 11:47:25;;;;;;;;;;;;;;;47.26;11.12;99746.84;5362644;32;34327;-73
2022/08/18 11:50:29;;;;;;;;;;;;;;;43.42;14.40;99742.91;5374950;32;35485;-66
2022/08/18 11:53:41;;;;;;;;;;;;;;;43.32;14.54;99745.72;5374882;32;34983;-76
2022/08/18 11:56:44;;;;;;;;;;;;;;;46.25;12.05;99736.22;5354655;32;44721;-76
2022/08/18 11:59:46;;;;;;;;;;;;;;;48.41;10.40;99722.66;5396351;32;35556;-82
2022/08/18 12:03:30;;;;;;;;;;;;;;;48.51;10.06;99728.72;5382655;32;34224;-76
2022/08/18 12:06:32;;;;;;;;;;;;;;;46.79;11.31;99726.03;5320195;32;34410;-77
2022/08/18 12:09:38;;;;;;;;;;;;;;;44.58;13.30;99714.88;5385297;32;33889;-66
2022/08/18 12:13:01;;;;;;;;;;;;;;;46.73;11.75;99716.19;5378244;32;35821;-66
2022/08/18 12:16:11;;;;;;;;;;;;;;;47.61;11.04;99725.59;5373958;32;34092;-65
2022/08/18 12:19:16;;;;;;;;;;;;;;;45.16;12.98;99702.56;5375252;32;44414;-65
2022/08/18 12:22:22;;;;;;;;;;;;;;;46.51;12.01;99703.94;5369452;32;34548;-77
2022/08/18 12:25:23;;;;;;;;;;;;;;;48.79;10.13;99690.19;5381758;32;34470;-66
2022/08/18 12:28:26;;;;;;;;;;;;;;;48.97;10.11;99687.34;5377470;32;32925;-79
2022/08/18 12:31:29;;;;;;;;;;;;;;;44.58;13.50;99687.16;5388214;32;35221;-75
2022/08/18 12:34:49;;;;;;;;;;;;;;;46.88;11.60;99671.34;5373247;32;44422;-64
2022/08/18 12:37:52;;;;;;;;;;;;;;;48.42;10.31;99676.91;5384861;32;34213;-67
2022/08/18 12:41:14;;;;;;;;;;;;;;;46.85;11.33;99669.19;5375651;32;34316;-69
2022/08/18 12:44:24;;;;;;;;;;;;;;;48.92;9.95;99668.81;5380315;32;38363;-69
2022/08/18 12:47:28;;;;;;;;;;;;;;;47.46;10.92;99665.56;5387240;32;35399;-68
2022/08/18 12:50:33;;;;;;;;;;;;;;;45.88;12.02;99674.22;5357388;32;33340;-76
2022/08/18 12:53:51;;;;;;;;;;;;;;;41.63;15.86;99678.84;5390535;32;44827;-76
2022/08/18 12:57:00;;;;;;;;;;;;;;;40.09;17.69;99693.69;5353543;32;34350;-76
2022/08/18 13:00:03;;;;;;;;;;;;;;;40.86;16.69;99703.75;5360362;32;34153;-68
2022/08/18 13:03:08;;;;;;;;;;;;;;;41.16;16.29;99699.34;5392323;32;35956;-69
2022/08/18 13:06:10;;;;;;;;;;;;;;;41.04;16.24;99704.31;5363000;32;33264;-71
2022/08/18 13:09:12;;;;;;;;;;;;;;;40.60;16.63;99704.84;5378998;32;33907;-78
2022/08/18 13:12:34;;;;;;;;;;;;;;;39.83;17.23;99711.19;5376090;32;35808;-75
2022/08/18 13:15:38;;;;;;;;;;;;;;;38.30;19.13;99721.75;5380272;32;34084;-72
2022/08/18 13:18:56;;;;;;;;;;;;;;;39.24;18.18;99715.78;5392225;32;35734;-74
2022/08/18 13:21:57;;;;;;;;;;;;;;;38.67;18.63;99715.53;5372275;32;34323;-74
2022/08/18 13:25:04;;;;;;;;;;;;;;;39.40;17.50;99716.69;5391664;32;35582;-74
2022/08/18 13:28:06;;;;;;;;;;;;;;;38.80;18.31;99720.63;5378310;32;34882;-82
2022/08/18 13:31:14;;;;;;;;;;;;;;;38.22;19.08;99720.25;5380796;32;43662;-75
2022/08/18 13:34:17;;;;;;;;;;;;;;;38.17;18.95;99711.97;5386280;32;34377;-76
2022/08/18 13:37:22;;;;;;;;;;;;;;;37.57;19.70;99723.81;5375485;32;35367;-82
2022/08/18 13:40:23;;;;;;;;;;;;;;;39.18;17.66;99716.84;5387290;32;34267;-79
2022/08/18 13:43:30;;;;;;;;;;;;;;;39.23;17.66;99713.31;5382684;32;34020;-76
2022/08/18 13:46:33;;;;;;;;;;;;;;;38.18;18.81;99705.41;5391500;32;34087;-68
2022/08/18 13:49:37;;;;;;;;;;;;;;;38.77;18.66;99714.81;5363445;32;35041;-79
2022/08/18 13:52:39;;;;;;;;;;;;;;;38.45;19.03;99718.31;5382963;32;35444;-67
2022/08/18 13:55:57;;;;;;;;;;;;;;;38.53;18.75;99715.12;5372423;32;34978;-66
2022/08/18 13:59:00;;;;;;;;;;;;;;;38.73;18.58;99714.53;5364988;32;33965;-65
2022/08/18 14:02:07;;;;;;;;;;;;;;;37.08;20.45;99712.63;5368154;32;35747;-65
2022/08/18 14:05:09;;;;;;;;;;;;;;;37.17;20.54;99714.97;5363839;32;35387;-65
2022/08/18 14:08:11;;;;;;;;;;;;;;;37.80;19.67;99703.56;5379834;32;36137;-65
2022/08/18 14:11:26;;;;;;;;;;;;;;;37.35;20.21;99704.56;5365331;32;44592;-65
2022/08/18 14:14:28;;;;;;;;;;;;;;;37.01;20.86;99709.22;5355946;32;34578;-82
2022/08/18 14:17:31;;;;;;;;;;;;;;;38.00;19.66;99708.50;5380931;32;34248;-83
2022/08/18 14:27:19;;;;;;;;;;;;;;;38.64;18.49;99722.34;5367364;32;47821;-66
2022/08/18 14:30:21;;;;;;;;;;;;;;;37.72;19.46;99719.63;5345533;32;34723;-66
2022/08/18 14:33:24;;;;;;;;;;;;;;;38.57;18.31;99716.25;5374284;32;35312;-66
2022/08/18 14:36:35;;;;;;;;;;;;;;;38.19;18.79;99719.94;5369668;32;34927;-75
2022/08/18 14:39:37;;;;;;;;;;;;;;;37.98;19.25;99713.38;5391455;32;34492;-79
2022/08/18 14:42:41;;;;;;;;;;;;;;;37.50;20.01;99722.34;5372111;32;35386;-65
2022/08/18 14:45:56;;;;;;;;;;;;;;;38.14;19.27;99720.72;5366062;32;34661;-80
2022/08/18 14:48:59;;;;;;;;;;;;;;;37.88;19.58;99724.25;5375431;32;33997;-80
2022/08/18 14:52:05;;;;;;;;;;;;;;;38.05;19.34;99724.16;5354476;32;35247;-66
2022/08/18 14:55:15;;;;;;;;;;;;;;;37.26;20.17;99721.66;5365132;32;44510;-66
2022/08/18 14:58:20;;;;;;;;;;;;;;;37.90;19.17;99717.41;5344837;32;35783;-65
2022/08/18 15:01:24;;;;;;;;;;;;;;;37.81;19.35;99716.22;5382764;32;35704;-64
2022/08/18 15:04:27;;;;;;;;;;;;;;;37.13;19.93;99729.16;5366280;32;35722;-70
2022/08/18 15:07:31;;;;;;;;;;;;;;;37.22;19.76;99715.03;5360742;32;34116;-66
2022/08/18 15:10:33;;;;;;;;;;;;;;;36.98;20.06;99706.19;5374811;32;34691;-65
2022/08/18 15:13:38;;;;;;;;;;;;;;;37.64;19.08;99702.53;5359125;32;34673;-66
2022/08/18 15:16:40;;;;;;;;;;;;;;;37.16;19.85;99700.41;5384195;32;37200;-78
2022/08/18 15:19:46;;;;;;;;;;;;;;;37.75;19.22;99697.19;5361974;32;34275;-64
2022/08/18 15:26:29;;;;;;;;;;;;;;;38.09;18.60;99700.62;5373915;32;34486;-78
2022/08/18 15:29:32;;;;;;;;;;;;;;;37.77;19.09;99704.06;5361932;32;34430;-66
2022/08/18 15:32:33;;;;;;;;;;;;;;;37.76;19.16;99705.16;5383080;32;35663;-66
2022/08/18 15:35:36;;;;;;;;;;;;;;;38.15;18.61;99716.06;5355381;32;34125;-68
2022/08/18 15:38:39;;;;;;;;;;;;;;;38.50;17.73;99715.62;5370143;32;35415;-65
2022/08/18 15:41:47;;;;;;;;;;;;;;;37.70;18.38;99714.38;5377392;32;35815;-78
2022/08/18 15:44:51;;;;;;;;;;;;;;;37.05;18.69;99712.31;5366885;32;44595;-78
2022/08/18 15:47:54;;;;;;;;;;;;;;;36.90;19.19;99723.00;5369047;32;35449;-73
2022/08/18 15:50:57;;;;;;;;;;;;;;;37.28;19.05;99722.25;5362804;32;34615;-66
2022/08/18 15:54:12;;;;;;;;;;;;;;;37.12;19.19;99729.41;5375749;32;34701;-80
2022/08/18 15:57:15;;;;;;;;;;;;;;;36.79;19.85;99727.47;5349262;32;44588;-65
2022/08/18 16:00:39;;;;;;;;;;;;;;;36.89;19.50;99713.97;5361836;32;35281;-66
2022/08/18 16:03:42;;;;;;;;;;;;;;;37.59;18.64;99701.63;5374806;32;34971;-80
2022/08/18 16:06:50;;;;;;;;;;;;;;;36.73;19.61;99703.81;5362577;32;44759;-65
2022/08/18 16:09:53;;;;;;;;;;;;;;;37.12;19.30;99694.63;5379115;32;34689;-74
2022/08/18 16:12:55;;;;;;;;;;;;;;;36.79;20.20;99700.09;5367551;32;34692;-79
2022/08/18 16:15:57;;;;;;;;;;;;;;;37.17;19.58;99704.84;5372372;32;34834;-65
2022/08/18 16:19:00;;;;;;;;;;;;;;;37.46;18.84;99705.56;5373674;32;34076;-67
2022/08/18 16:22:05;;;;;;;;;;;;;;;37.39;18.88;99693.94;5371081;32;34594;-65
2022/08/18 16:25:07;;;;;;;;;;;;;;;37.70;18.68;99699.84;5369733;32;34878;-82
2022/08/18 16:28:11;;;;;;;;;;;;;;;37.69;18.49;99710.00;5352978;32;35049;-66
2022/08/18 16:31:18;;;;;;;;;;;;;;;37.18;19.04;99705.66;5390487;32;35191;-79
2022/08/18 16:34:20;;;;;;;;;;;;;;;37.61;18.53;99697.56;5367637;32;44732;-66
2022/08/18 16:37:22;;;;;;;;;;;;;;;37.47;18.63;99700.91;5375863;32;34657;-66
2022/08/18 16:40:24;;;;;;;;;;;;;;;36.81;19.51;99698.75;5387162;32;35232;-80
2022/08/18 16:43:29;;;;;;;;;;;;;;;36.42;19.98;99696.97;5366160;32;35759;-66